Time;durP1;ratioP1;P1;durP2;ratioP2;P2;SDS_P1;SDS_P2;PMS_P1;PMS_P2;Temp;Humidity;BMP_temperature;BMP_pressure;BME280_temperature;BME280_humidity;BME280_pressure;Samples;Min_cycle;Max_cycle;Signal;HPM_P1;HPM_P2
2021/10/16 00:01:28;;;;;;;3.87;1.37;;;;;;;;;;4543232;28;20110;-58
2021/10/16 00:03:39;;;;;;;2.90;1.33;;;;;;;;;;4544343;28;20135;-57
2021/10/16 00:05:50;;;;;;;3.17;1.40;;;;;;;;;;4546040;28;20060;-57
2021/10/16 00:08:00;;;;;;;3.27;1.40;;;;;;;;;;4544850;28;20056;-58
2021/10/16 00:10:11;;;;;;;3.23;1.53;;;;;;;;;;4544508;28;20064;-58
2021/10/16 00:12:21;;;;;;;3.60;1.40;;;;;;;;;;4545101;28;20122;-58
2021/10/16 00:14:32;;;;;;;2.03;1.23;;;;;;;;;;4545444;28;20584;-58
2021/10/16 00:16:42;;;;;;;2.33;1.33;;;;;;;;;;4544025;28;20494;-58
2021/10/16 00:18:53;;;;;;;1.37;0.90;;;;;;;;;;4554124;28;20083;-58
2021/10/16 00:21:04;;;;;;;3.47;1.20;;;;;;;;;;4543018;28;20629;-58
2021/10/16 00:23:15;;;;;;;1.45;1.10;;;;;;;;;;4545435;28;20033;-59
2021/10/16 00:25:25;;;;;;;2.07;1.03;;;;;;;;;;4547541;28;20592;-58
2021/10/16 00:27:35;;;;;;;2.73;1.10;;;;;;;;;;4550140;28;20037;-59
2021/10/16 00:29:46;;;;;;;1.43;0.90;;;;;;;;;;4549115;28;20878;-59
2021/10/16 00:31:57;;;;;;;2.17;1.17;;;;;;;;;;4549362;28;20040;-58
2021/10/16 00:34:07;;;;;;;2.20;1.17;;;;;;;;;;4547566;28;20131;-58
2021/10/16 00:36:17;;;;;;;2.83;1.30;;;;;;;;;;4550362;28;20029;-58
2021/10/16 00:38:28;;;;;;;1.93;1.03;;;;;;;;;;4549357;28;23712;-58
2021/10/16 00:40:38;;;;;;;2.53;1.33;;;;;;;;;;4550429;28;20056;-58
2021/10/16 00:42:51;;;;;;;2.53;1.17;;;;;;;;;;4546306;28;20032;-58
2021/10/16 00:45:03;;;;;;;3.10;1.17;;;;;;;;;;4539659;28;20029;-58
2021/10/16 00:47:13;;;;;;;1.80;1.15;;;;;;;;;;4547585;28;20107;-55
2021/10/16 00:49:25;;;;;;;2.40;1.13;;;;;;;;;;4532145;28;20096;-56
2021/10/16 00:51:35;;;;;;;;;;;;;;;;;;4548531;28;20040;-55
2021/10/16 00:53:46;;;;;;;2.38;1.15;;;;;;;;;;4532703;28;19928;-55
2021/10/16 00:55:57;;;;;;;1.73;1.00;;;;;;;;;;4549913;28;20063;-56
2021/10/16 00:58:08;;;;;;;3.35;1.27;;;;;;;;;;4549431;28;20040;-56
2021/10/16 01:00:19;;;;;;;3.03;1.40;;;;;;;;;;4548678;28;20041;-56
2021/10/16 01:02:31;;;;;;;2.70;1.30;;;;;;;;;;4550277;28;20024;-56
2021/10/16 01:04:42;;;;;;;2.45;1.23;;;;;;;;;;4549600;28;20240;-56
2021/10/16 01:06:57;;;;;;;3.65;1.30;;;;;;;;;;4549713;28;20056;-56
2021/10/16 01:09:08;;;;;;;2.73;1.30;;;;;;;;;;4545832;28;20123;-56
2021/10/16 01:11:34;;;;;;;3.47;1.33;;;;;;;;;;4549706;28;20032;-56
2021/10/16 01:13:45;;;;;;;2.35;1.27;;;;;;;;;;4549954;28;20151;-55
2021/10/16 01:15:56;;;;;;;2.70;1.30;;;;;;;;;;4547726;28;20124;-56
2021/10/16 01:18:07;;;;;;;1.35;0.95;;;;;;;;;;4547658;28;20037;-56
2021/10/16 01:20:19;;;;;;;3.28;1.35;;;;;;;;;;4549119;28;20064;-56
2021/10/16 01:22:34;;;;;;;1.42;0.90;;;;;;;;;;4550058;28;20160;-56
2021/10/16 01:24:45;;;;;;;4.05;1.40;;;;;;;;;;4547996;28;20112;-56
2021/10/16 01:26:55;;;;;;;1.77;1.00;;;;;;;;;;4546147;28;20036;-56
2021/10/16 01:29:08;;;;;;;2.60;1.00;;;;;;;;;;4550990;28;20342;-56
2021/10/16 01:31:21;;;;;;;1.75;1.00;;;;;;;;;;4549127;28;20119;-56
2021/10/16 01:33:32;;;;;;;1.85;0.95;;;;;;;;;;4556015;28;20653;-56
2021/10/16 01:35:59;;;;;;;2.20;1.20;;;;;;;;;;4547786;28;20086;-56
2021/10/16 01:38:09;;;;;;;3.75;1.02;;;;;;;;;;4549588;28;20037;-56
2021/10/16 01:40:20;;;;;;;1.70;1.00;;;;;;;;;;4549328;28;20523;-56
2021/10/16 01:42:31;;;;;;;3.03;1.20;;;;;;;;;;4547875;28;20862;-56
2021/10/16 01:44:46;;;;;;;2.42;1.25;;;;;;;;;;4549415;28;20533;-56
2021/10/16 01:46:57;;;;;;;2.53;1.30;;;;;;;;;;4549290;28;20067;-56
2021/10/16 01:49:15;;;;;;;2.75;1.25;;;;;;;;;;4547086;28;20037;-56
2021/10/16 01:51:26;;;;;;;4.38;1.33;;;;;;;;;;4538909;28;20060;-56
2021/10/16 01:53:36;;;;;;;2.67;1.00;;;;;;;;;;4547050;28;20124;-56
2021/10/16 01:55:48;;;;;;;2.72;1.20;;;;;;;;;;4549243;28;20523;-55
2021/10/16 01:58:06;;;;;;;1.85;1.10;;;;;;;;;;4514211;28;20034;-56
2021/10/16 02:00:20;;;;;;;2.05;1.05;;;;;;;;;;4548842;28;20041;-56
2021/10/16 02:02:37;;;;;;;2.08;1.00;;;;;;;;;;4547213;28;20795;-56
2021/10/16 02:05:17;;;;;;;1.30;0.80;;;;;;;;;;4540314;28;20048;-56
2021/10/16 02:07:33;;;;;;;1.45;1.15;;;;;;;;;;4548007;28;20575;-56
2021/10/16 02:09:44;;;;;;;1.83;1.00;;;;;;;;;;4553885;28;20048;-56
2021/10/16 02:11:55;;;;;;;1.37;1.00;;;;;;;;;;4555946;28;20444;-56
2021/10/16 02:14:07;;;;;;;1.83;1.00;;;;;;;;;;4549545;28;26862;-56
2021/10/16 02:16:18;;;;;;;2.58;1.10;;;;;;;;;;4546011;28;20079;-55
2021/10/16 02:18:51;;;;;;;3.17;1.10;;;;;;;;;;4547383;28;20039;-55
2021/10/16 02:21:04;;;;;;;1.75;0.98;;;;;;;;;;4547490;28;20634;-56
2021/10/16 02:23:15;;;;;;;1.73;1.10;;;;;;;;;;4533339;28;20148;-56
2021/10/16 02:25:27;;;;;;;2.88;1.10;;;;;;;;;;4554755;28;20082;-56
2021/10/16 02:27:38;;;;;;;1.95;1.00;;;;;;;;;;4545228;28;20033;-56
2021/10/16 02:29:48;;;;;;;3.03;1.27;;;;;;;;;;4555109;28;20029;-56
2021/10/16 02:31:59;;;;;;;1.70;1.00;;;;;;;;;;4531641;28;20501;-56
2021/10/16 02:34:09;;;;;;;3.07;1.10;;;;;;;;;;4530886;28;20041;-56
2021/10/16 02:36:27;;;;;;;1.77;1.15;;;;;;;;;;4547562;28;20546;-56
2021/10/16 02:38:37;;;;;;;3.70;1.10;;;;;;;;;;4548534;28;20025;-56
2021/10/16 02:40:48;;;;;;;2.17;0.87;;;;;;;;;;4547498;28;20083;-56
2021/10/16 02:43:00;;;;;;;1.57;1.10;;;;;;;;;;4544922;28;20465;-56
2021/10/16 02:45:11;;;;;;;2.95;1.23;;;;;;;;;;4546231;28;20033;-56
2021/10/16 02:47:26;;;;;;;0.83;0.80;;;;;;;;;;4544161;28;20043;-56
2021/10/16 02:49:36;;;;;;;1.25;0.98;;;;;;;;;;4546328;28;20520;-56
2021/10/16 02:51:47;;;;;;;2.05;1.00;;;;;;;;;;4547534;28;20040;-56
2021/10/16 02:53:58;;;;;;;3.60;1.03;;;;;;;;;;4528241;28;20461;-56
2021/10/16 02:56:09;;;;;;;1.90;1.00;;;;;;;;;;4531316;28;20992;-56
2021/10/16 02:58:20;;;;;;;2.07;0.93;;;;;;;;;;4546815;28;20041;-56
2021/10/16 03:00:30;;;;;;;1.00;0.90;;;;;;;;;;4545775;28;20061;-56
2021/10/16 03:02:42;;;;;;;2.95;0.95;;;;;;;;;;4546375;28;20033;-56
2021/10/16 03:04:55;;;;;;;2.58;1.23;;;;;;;;;;4548580;28;20144;-56
2021/10/16 03:07:06;;;;;;;3.60;1.17;;;;;;;;;;4545788;28;20433;-55
2021/10/16 03:09:24;;;;;;;3.28;1.00;;;;;;;;;;4532261;28;20820;-56
2021/10/16 03:11:35;;;;;;;1.40;0.83;;;;;;;;;;4548193;28;20025;-55
2021/10/16 03:13:45;;;;;;;1.73;0.97;;;;;;;;;;4548595;28;20035;-56
2021/10/16 03:16:01;;;;;;;2.22;0.82;;;;;;;;;;4546944;28;20532;-56
2021/10/16 03:18:12;;;;;;;1.08;0.88;;;;;;;;;;4545263;28;20020;-56
2021/10/16 03:20:22;;;;;;;2.90;1.10;;;;;;;;;;4559666;28;20045;-56
2021/10/16 03:22:33;;;;;;;1.93;1.07;;;;;;;;;;4562055;28;20033;-56
2021/10/16 03:24:43;;;;;;;1.37;0.90;;;;;;;;;;4554116;28;20255;-55
2021/10/16 03:26:55;;;;;;;0.90;0.80;;;;;;;;;;4537934;28;20036;-55
2021/10/16 03:29:05;;;;;;;2.43;1.00;;;;;;;;;;4547321;28;20040;-56
2021/10/16 03:31:18;;;;;;;2.88;1.15;;;;;;;;;;4532348;28;20714;-56
2021/10/16 03:33:28;;;;;;;2.73;1.10;;;;;;;;;;4529883;28;20053;-55
2021/10/16 03:35:39;;;;;;;1.73;0.90;;;;;;;;;;4547171;28;20035;-56
2021/10/16 03:37:49;;;;;;;2.43;0.87;;;;;;;;;;4561755;28;20124;-56
2021/10/16 03:40:00;;;;;;;1.45;0.90;;;;;;;;;;4547445;28;20050;-56
2021/10/16 03:42:11;;;;;;;2.73;1.00;;;;;;;;;;4547786;28;20044;-56
2021/10/16 03:44:29;;;;;;;2.05;1.02;;;;;;;;;;4546518;28;20112;-55
2021/10/16 03:46:41;;;;;;;1.63;0.88;;;;;;;;;;4543700;28;20850;-55
2021/10/16 03:48:53;;;;;;;;;;;;;;;;;;4548582;28;20036;-55
2021/10/16 03:51:03;;;;;;;1.63;1.05;;;;;;;;;;4546976;28;19916;-56
2021/10/16 03:53:16;;;;;;;1.65;0.80;;;;;;;;;;4546485;28;20747;-55
2021/10/16 03:55:26;;;;;;;1.90;0.90;;;;;;;;;;4545973;28;20579;-55
2021/10/16 03:57:37;;;;;;;1.53;0.80;;;;;;;;;;4548173;28;20016;-56
2021/10/16 03:59:48;;;;;;;1.63;0.88;;;;;;;;;;4550395;28;20944;-56
2021/10/16 04:01:59;;;;;;;1.73;0.80;;;;;;;;;;4549310;28;20122;-56
2021/10/16 04:04:09;;;;;;;1.67;0.90;;;;;;;;;;4548152;28;20151;-55
2021/10/16 04:06:20;;;;;;;1.30;0.60;;;;;;;;;;4547129;28;20029;-56
2021/10/16 04:08:31;;;;;;;2.00;0.87;;;;;;;;;;4549807;28;20033;-56
2021/10/16 04:10:42;;;;;;;1.00;0.63;;;;;;;;;;4548107;28;20086;-56
2021/10/16 04:12:53;;;;;;;0.65;0.50;;;;;;;;;;4534157;28;20087;-55
2021/10/16 04:15:05;;;;;;;0.75;0.60;;;;;;;;;;4549988;28;20059;-56
2021/10/16 04:17:19;;;;;;;1.23;0.70;;;;;;;;;;4547207;28;20041;-56
2021/10/16 04:19:30;;;;;;;1.42;0.82;;;;;;;;;;4550460;28;20118;-56
2021/10/16 04:21:40;;;;;;;0.70;0.60;;;;;;;;;;4551596;28;20420;-56
2021/10/16 04:23:51;;;;;;;1.20;0.80;;;;;;;;;;4549014;28;20025;-55
2021/10/16 04:26:02;;;;;;;1.13;0.70;;;;;;;;;;4547563;28;20037;-56
2021/10/16 04:28:12;;;;;;;1.60;0.87;;;;;;;;;;4530509;28;20080;-55
2021/10/16 04:30:43;;;;;;;1.17;0.68;;;;;;;;;;4548365;28;20041;-56
2021/10/16 04:32:53;;;;;;;1.63;0.80;;;;;;;;;;4546358;28;20033;-56
2021/10/16 04:35:05;;;;;;;1.57;0.80;;;;;;;;;;4548830;28;20052;-56
2021/10/16 04:37:16;;;;;;;1.25;0.70;;;;;;;;;;4550494;28;20029;-56
2021/10/16 04:39:28;;;;;;;2.00;0.75;;;;;;;;;;4547019;28;20033;-56
2021/10/16 04:41:40;;;;;;;1.08;0.82;;;;;;;;;;4547666;28;20611;-56
2021/10/16 04:43:50;;;;;;;2.27;1.00;;;;;;;;;;4546480;28;20064;-56
2021/10/16 04:46:00;;;;;;;2.93;1.00;;;;;;;;;;4547438;28;20267;-56
2021/10/16 04:48:11;;;;;;;1.67;0.70;;;;;;;;;;4556637;28;20115;-55
2021/10/16 04:50:23;;;;;;;1.93;0.80;;;;;;;;;;4546925;28;20025;-55
2021/10/16 04:52:34;;;;;;;2.47;0.80;;;;;;;;;;4548055;28;20119;-56
2021/10/16 04:54:47;;;;;;;1.70;0.90;;;;;;;;;;4554228;28;20110;-55
2021/10/16 04:56:59;;;;;;;1.77;0.83;;;;;;;;;;4556601;28;20156;-56
2021/10/16 04:59:12;;;;;;;1.67;0.70;;;;;;;;;;4539241;28;20571;-56
2021/10/16 05:01:23;;;;;;;1.90;0.80;;;;;;;;;;4550859;28;20043;-58
2021/10/16 05:03:35;;;;;;;;;;;;;;;;;;4551414;28;20132;-57
2021/10/16 05:05:45;;;;;;;1.92;0.98;;;;;;;;;;4556337;28;20459;-57
2021/10/16 05:07:59;;;;;;;1.90;0.88;;;;;;;;;;4556032;28;20033;-58
2021/10/16 05:10:09;;;;;;;1.73;0.80;;;;;;;;;;4548567;28;20047;-57
2021/10/16 05:12:20;;;;;;;2.33;1.00;;;;;;;;;;4549642;28;20042;-58
2021/10/16 05:14:30;;;;;;;1.37;0.90;;;;;;;;;;4547496;28;20040;-57
2021/10/16 05:16:41;;;;;;;2.40;1.00;;;;;;;;;;4562960;28;20074;-58
2021/10/16 05:18:52;;;;;;;2.42;1.00;;;;;;;;;;4549266;28;20037;-58
2021/10/16 05:21:04;;;;;;;1.53;0.80;;;;;;;;;;4555684;28;20045;-57
2021/10/16 05:23:15;;;;;;;1.45;0.70;;;;;;;;;;4549382;28;20115;-58
2021/10/16 05:25:25;;;;;;;1.80;0.80;;;;;;;;;;4545967;28;20044;-57
2021/10/16 05:27:38;;;;;;;1.20;0.83;;;;;;;;;;4547192;28;20037;-58
2021/10/16 05:29:49;;;;;;;2.20;0.90;;;;;;;;;;4555954;28;20088;-58
2021/10/16 05:31:59;;;;;;;1.43;0.70;;;;;;;;;;4548255;28;20076;-57
2021/10/16 05:34:09;;;;;;;1.90;0.70;;;;;;;;;;4545613;28;20394;-58
2021/10/16 05:36:20;;;;;;;1.50;0.87;;;;;;;;;;4546100;28;29558;-58
2021/10/16 05:38:30;;;;;;;1.33;0.83;;;;;;;;;;4549587;28;20033;-58
2021/10/16 05:40:41;;;;;;;1.30;0.80;;;;;;;;;;4555231;28;20156;-58
2021/10/16 05:42:52;;;;;;;1.67;0.80;;;;;;;;;;4548693;28;20025;-57
2021/10/16 05:45:03;;;;;;;1.10;0.90;;;;;;;;;;4562340;28;20071;-58
2021/10/16 05:47:16;;;;;;;1.15;0.73;;;;;;;;;;4546810;28;20079;-58
2021/10/16 05:49:27;;;;;;;1.23;0.60;;;;;;;;;;4544828;28;20032;-58
2021/10/16 05:51:38;;;;;;;2.13;0.90;;;;;;;;;;4532178;28;20112;-57
2021/10/16 05:53:48;;;;;;;1.20;0.90;;;;;;;;;;4548197;28;20020;-58
2021/10/16 05:56:00;;;;;;;1.95;1.05;;;;;;;;;;4548736;28;20032;-57
2021/10/16 05:58:11;;;;;;;3.33;1.15;;;;;;;;;;4548600;28;20123;-57
2021/10/16 06:00:22;;;;;;;1.33;0.73;;;;;;;;;;4530545;28;20045;-58
2021/10/16 06:02:38;;;;;;;3.22;1.05;;;;;;;;;;4531715;28;20025;-58
2021/10/16 06:04:48;;;;;;;3.28;1.15;;;;;;;;;;4547757;28;20572;-57
2021/10/16 06:06:59;;;;;;;2.47;1.10;;;;;;;;;;4563039;28;20159;-57
2021/10/16 06:09:09;;;;;;;2.10;1.07;;;;;;;;;;4547103;28;20589;-57
2021/10/16 06:11:20;;;;;;;1.50;0.93;;;;;;;;;;4547143;28;20517;-56
2021/10/16 06:13:32;;;;;;;1.83;1.17;;;;;;;;;;4547651;28;20043;-56
2021/10/16 06:15:42;;;;;;;1.98;0.93;;;;;;;;;;4546709;28;20063;-56
2021/10/16 06:17:53;;;;;;;2.97;1.00;;;;;;;;;;4547366;28;20028;-57
2021/10/16 06:20:04;;;;;;;1.50;0.90;;;;;;;;;;4553853;28;20048;-56
2021/10/16 06:22:18;;;;;;;2.20;0.90;;;;;;;;;;4537647;28;20559;-57
2021/10/16 06:24:29;;;;;;;;;;;;;;;;;;4544744;28;20538;-57
2021/10/16 06:26:39;;;;;;;2.53;1.40;;;;;;;;;;4546118;28;19939;-56
2021/10/16 06:28:50;;;;;;;1.40;0.90;;;;;;;;;;4547385;28;20040;-56
2021/10/16 06:31:01;;;;;;;1.97;1.03;;;;;;;;;;4548457;28;20111;-57
2021/10/16 06:33:14;;;;;;;1.17;0.90;;;;;;;;;;4526678;28;20240;-56
2021/10/16 06:35:25;;;;;;;2.72;1.08;;;;;;;;;;4553447;28;20084;-57
2021/10/16 06:37:36;;;;;;;1.63;0.82;;;;;;;;;;4555011;28;20080;-57
2021/10/16 06:39:48;;;;;;;1.70;0.90;;;;;;;;;;4553524;28;20036;-57
2021/10/16 06:41:59;;;;;;;2.50;0.93;;;;;;;;;;4536221;28;20378;-57
2021/10/16 06:44:24;;;;;;;3.33;1.20;;;;;;;;;;4544377;28;20032;-57
2021/10/16 06:46:42;;;;;;;1.58;1.00;;;;;;;;;;4544615;28;20032;-57
2021/10/16 06:49:05;;;;;;;2.20;1.17;;;;;;;;;;4547692;28;20029;-57
2021/10/16 06:51:16;;;;;;;2.27;1.10;;;;;;;;;;4547323;28;20033;-57
2021/10/16 06:53:26;;;;;;;3.07;2.50;;;;;;;;;;4547200;28;20116;-57
2021/10/16 06:55:37;;;;;;;2.83;2.40;;;;;;;;;;4543931;28;20036;-57
2021/10/16 06:57:47;;;;;;;6.73;4.03;;;;;;;;;;4536902;28;20037;-57
2021/10/16 06:59:58;;;;;;;3.27;1.40;;;;;;;;;;4547639;28;20789;-57
2021/10/16 07:02:08;;;;;;;2.57;1.23;;;;;;;;;;4546132;28;20071;-57
2021/10/16 07:04:31;;;;;;;4.78;2.67;;;;;;;;;;4547311;28;20059;-57
2021/10/16 07:06:48;;;;;;;2.42;1.42;;;;;;;;;;4554050;28;20790;-57
2021/10/16 07:09:04;;;;;;;1.77;1.00;;;;;;;;;;4546552;28;20039;-57
2021/10/16 07:11:14;;;;;;;2.57;1.07;;;;;;;;;;4546157;28;20047;-57
2021/10/16 07:13:25;;;;;;;3.80;1.50;;;;;;;;;;4546191;28;20037;-57
2021/10/16 07:15:36;;;;;;;2.63;1.20;;;;;;;;;;4545772;28;20054;-57
2021/10/16 07:17:46;;;;;;;4.07;1.53;;;;;;;;;;4548359;28;20293;-57
2021/10/16 07:19:57;;;;;;;3.10;1.40;;;;;;;;;;4546788;28;20040;-57
2021/10/16 07:22:07;;;;;;;1.77;1.20;;;;;;;;;;4546138;28;20489;-57
2021/10/16 07:24:18;;;;;;;3.43;1.30;;;;;;;;;;4548831;28;20035;-58
2021/10/16 07:26:29;;;;;;;3.90;1.47;;;;;;;;;;4545634;28;20115;-58
2021/10/16 07:28:40;;;;;;;3.00;1.40;;;;;;;;;;4561285;28;20060;-57
2021/10/16 07:30:51;;;;;;;2.17;1.10;;;;;;;;;;4545630;28;20108;-58
2021/10/16 07:33:02;;;;;;;2.47;1.30;;;;;;;;;;4554096;28;20700;-58
2021/10/16 07:35:13;;;;;;;2.08;1.10;;;;;;;;;;4545248;28;20239;-57
2021/10/16 07:37:23;;;;;;;1.60;0.95;;;;;;;;;;4543684;28;20033;-58
2021/10/16 07:39:34;;;;;;;2.40;0.93;;;;;;;;;;4542453;28;28320;-58
2021/10/16 07:41:48;;;;;;;1.95;0.85;;;;;;;;;;4544071;28;20088;-58
2021/10/16 07:43:58;;;;;;;2.88;1.10;;;;;;;;;;4552953;28;20661;-58
2021/10/16 07:46:09;;;;;;;3.77;1.43;;;;;;;;;;4547891;28;21676;-57
2021/10/16 07:48:19;;;;;;;2.80;1.30;;;;;;;;;;4542850;28;20047;-58
2021/10/16 07:50:30;;;;;;;2.43;1.20;;;;;;;;;;4547158;28;20032;-58
2021/10/16 07:52:40;;;;;;;2.20;1.07;;;;;;;;;;4543086;28;20116;-58
2021/10/16 07:54:50;;;;;;;2.70;1.30;;;;;;;;;;4545867;28;20044;-58
2021/10/16 07:57:01;;;;;;;2.53;1.20;;;;;;;;;;4545438;28;20119;-58
2021/10/16 07:59:12;;;;;;;1.90;1.10;;;;;;;;;;4544345;28;20520;-57
2021/10/16 08:01:23;;;;;;;4.90;1.30;;;;;;;;;;4546782;28;20821;-58
2021/10/16 08:03:33;;;;;;;2.03;1.03;;;;;;;;;;4544941;28;20041;-57
2021/10/16 08:05:43;;;;;;;1.43;0.80;;;;;;;;;;4543408;28;20052;-58
2021/10/16 08:07:54;;;;;;;3.20;1.10;;;;;;;;;;4546696;28;20036;-57
2021/10/16 08:10:05;;;;;;;3.23;1.10;;;;;;;;;;4547430;28;20033;-57
2021/10/16 08:12:16;;;;;;;2.67;1.13;;;;;;;;;;4544031;28;20282;-57
2021/10/16 08:14:26;;;;;;;1.70;1.03;;;;;;;;;;4544885;28;20037;-57
2021/10/16 08:16:36;;;;;;;2.67;1.10;;;;;;;;;;4544302;28;20167;-58
2021/10/16 08:18:47;;;;;;;1.87;1.20;;;;;;;;;;4545765;28;20025;-58
2021/10/16 08:20:57;;;;;;;2.87;1.17;;;;;;;;;;4546968;28;20082;-58
2021/10/16 08:23:08;;;;;;;3.70;1.23;;;;;;;;;;4544270;28;20497;-58
2021/10/16 08:25:18;;;;;;;2.63;1.10;;;;;;;;;;4545667;28;20047;-57
2021/10/16 08:27:29;;;;;;;3.70;1.20;;;;;;;;;;4544444;28;20044;-57
2021/10/16 08:29:40;;;;;;;2.13;1.10;;;;;;;;;;4544029;28;20035;-57
2021/10/16 08:31:51;;;;;;;3.13;1.10;;;;;;;;;;4543918;28;20035;-58
2021/10/16 08:34:01;;;;;;;4.63;1.30;;;;;;;;;;4515108;28;20051;-58
2021/10/16 08:36:13;;;;;;;3.37;1.30;;;;;;;;;;4545552;28;20029;-58
2021/10/16 08:38:23;;;;;;;3.53;1.58;;;;;;;;;;4547625;28;20041;-58
2021/10/16 08:40:34;;;;;;;2.63;1.20;;;;;;;;;;4543445;28;20045;-58
2021/10/16 08:42:45;;;;;;;2.45;1.20;;;;;;;;;;4545056;28;20036;-58
2021/10/16 08:44:59;;;;;;;3.03;1.10;;;;;;;;;;4545517;28;20039;-57
2021/10/16 08:47:11;;;;;;;3.40;1.27;;;;;;;;;;4546108;28;20112;-58
2021/10/16 08:49:22;;;;;;;3.70;1.27;;;;;;;;;;4550012;28;20880;-58
2021/10/16 08:51:32;;;;;;;;;;;;;;;;;;4547757;28;20033;-57
2021/10/16 08:53:43;;;;;;;4.50;1.50;;;;;;;;;;4547391;28;19916;-58
2021/10/16 08:55:53;;;;;;;3.20;1.10;;;;;;;;;;4549212;28;20477;-58
2021/10/16 08:58:05;;;;;;;2.93;1.20;;;;;;;;;;4546132;28;20045;-58
2021/10/16 09:00:42;;;;;;;2.70;1.00;;;;;;;;;;4548189;28;20033;-58
2021/10/16 09:02:52;;;;;;;3.13;1.27;;;;;;;;;;4556401;28;20048;-58
2021/10/16 09:05:11;;;;;;;4.40;1.40;;;;;;;;;;4547795;28;20037;-57
2021/10/16 09:07:23;;;;;;;3.15;1.30;;;;;;;;;;4550606;28;21409;-57
2021/10/16 09:09:33;;;;;;;4.65;1.42;;;;;;;;;;4549466;28;20106;-58
2021/10/16 09:11:45;;;;;;;3.93;1.40;;;;;;;;;;4547942;28;20412;-57
2021/10/16 09:14:03;;;;;;;4.25;1.65;;;;;;;;;;4547198;28;20040;-58
2021/10/16 09:16:26;;;;;;;4.03;1.48;;;;;;;;;;4547544;28;20059;-58
2021/10/16 09:18:37;;;;;;;3.90;1.13;;;;;;;;;;4546190;28;20033;-57
2021/10/16 09:20:47;;;;;;;2.70;1.20;;;;;;;;;;4548712;28;20761;-57
2021/10/16 09:23:09;;;;;;;2.90;1.27;;;;;;;;;;4547186;28;20501;-57
2021/10/16 09:25:23;;;;;;;3.22;1.30;;;;;;;;;;4547083;28;20146;-57
2021/10/16 09:27:34;;;;;;;4.82;1.73;;;;;;;;;;4546325;28;20049;-57
2021/10/16 09:29:49;;;;;;;2.77;1.40;;;;;;;;;;4547233;28;20033;-56
2021/10/16 09:32:09;;;;;;;4.10;1.50;;;;;;;;;;4547900;28;20824;-57
2021/10/16 09:34:28;;;;;;;2.85;1.23;;;;;;;;;;4545917;28;20075;-57
2021/10/16 09:36:40;;;;;;;3.85;1.58;;;;;;;;;;4556172;28;20028;-57
2021/10/16 09:38:51;;;;;;;3.38;1.33;;;;;;;;;;4549456;28;21234;-57
2021/10/16 09:41:02;;;;;;;3.13;1.40;;;;;;;;;;4547133;28;20127;-58
2021/10/16 09:43:17;;;;;;;4.53;1.83;;;;;;;;;;4544662;28;20036;-57
2021/10/16 09:45:28;;;;;;;3.35;1.55;;;;;;;;;;4544972;28;20574;-57
2021/10/16 09:47:55;;;;;;;4.05;1.48;;;;;;;;;;4549738;28;20152;-57
2021/10/16 09:50:07;;;;;;;3.58;1.67;;;;;;;;;;4550498;28;20032;-57
2021/10/16 09:52:19;;;;;;;5.78;1.50;;;;;;;;;;4546788;28;20045;-57
2021/10/16 09:54:30;;;;;;;4.50;1.70;;;;;;;;;;4547049;28;20025;-57
2021/10/16 09:56:41;;;;;;;3.53;1.63;;;;;;;;;;4547491;28;20025;-57
2021/10/16 09:58:52;;;;;;;3.65;1.55;;;;;;;;;;4546346;28;20029;-57
2021/10/16 10:01:03;;;;;;;4.60;1.80;;;;;;;;;;4543127;28;20136;-57
2021/10/16 10:03:14;;;;;;;3.88;1.35;;;;;;;;;;4548534;28;20061;-57
2021/10/16 10:05:25;;;;;;;3.20;1.60;;;;;;;;;;4546567;28;20095;-57
2021/10/16 10:07:36;;;;;;;4.10;1.30;;;;;;;;;;4555284;28;20037;-58
2021/10/16 10:09:47;;;;;;;3.00;1.27;;;;;;;;;;4546386;28;20041;-58
2021/10/16 10:11:59;;;;;;;4.18;1.52;;;;;;;;;;4538262;28;20045;-57
2021/10/16 10:14:09;;;;;;;3.75;1.45;;;;;;;;;;4546255;28;20063;-57
2021/10/16 10:16:20;;;;;;;4.73;1.80;;;;;;;;;;4547643;28;20132;-56
2021/10/16 10:21:03;;;;;;;4.32;1.63;;;;;;;;;;4546283;28;20128;-57
2021/10/16 10:23:22;;;;;;;3.73;1.57;;;;;;;;;;4546896;28;20033;-57
2021/10/16 10:25:32;;;;;;;5.03;1.70;;;;;;;;;;4545351;28;20037;-57
2021/10/16 10:27:44;;;;;;;3.40;1.40;;;;;;;;;;4546483;28;20041;-57
2021/10/16 10:29:54;;;;;;;3.80;1.70;;;;;;;;;;4544119;28;20031;-57
2021/10/16 10:32:15;;;;;;;3.40;1.60;;;;;;;;;;4547272;28;21016;-57
2021/10/16 10:34:31;;;;;;;4.03;1.48;;;;;;;;;;4546559;28;20076;-57
2021/10/16 10:36:44;;;;;;;4.38;1.70;;;;;;;;;;4546020;28;20036;-57
2021/10/16 10:38:55;;;;;;;4.32;1.60;;;;;;;;;;4546544;28;20114;-57
2021/10/16 10:41:24;;;;;;;4.30;1.73;;;;;;;;;;4544646;28;20041;-57
2021/10/16 10:43:38;;;;;;;3.70;1.60;;;;;;;;;;4546218;28;20033;-57
2021/10/16 10:45:49;;;;;;;4.10;1.70;;;;;;;;;;4546875;28;20051;-57
2021/10/16 10:48:08;;;;;;;3.27;1.57;;;;;;;;;;4543717;28;31539;-57
2021/10/16 10:50:39;;;;;;;3.72;1.42;;;;;;;;;;4545932;28;20033;-57
2021/10/16 10:53:07;;;;;;;4.27;1.60;;;;;;;;;;4545914;28;20047;-57
2021/10/16 10:55:17;;;;;;;5.32;1.80;;;;;;;;;;4548803;28;20239;-57
2021/10/16 10:57:56;;;;;;;4.77;1.63;;;;;;;;;;4545639;28;20033;-57
2021/10/16 11:00:09;;;;;;;4.55;1.40;;;;;;;;;;4533302;28;20052;-57
2021/10/16 11:02:30;;;;;;;4.95;1.73;;;;;;;;;;4546990;28;21069;-57
2021/10/16 11:04:44;;;;;;;4.93;1.55;;;;;;;;;;4527677;28;20044;-57
2021/10/16 11:07:04;;;;;;;4.63;1.27;;;;;;;;;;4545863;28;20044;-57
2021/10/16 11:09:15;;;;;;;3.83;1.50;;;;;;;;;;4546805;28;20203;-57
2021/10/16 11:11:25;;;;;;;;;;;;;;;;;;4543355;28;20039;-57
2021/10/16 11:13:36;;;;;;;2.78;1.30;;;;;;;;;;4544642;28;19923;-57
2021/10/16 11:16:01;;;;;;;5.50;2.47;;;;;;;;;;4543064;28;20036;-57
2021/10/16 11:18:13;;;;;;;4.63;2.08;;;;;;;;;;4546850;28;20140;-57
2021/10/16 11:20:34;;;;;;;6.70;2.28;;;;;;;;;;4545215;28;20328;-58
2021/10/16 11:22:55;;;;;;;4.57;1.77;;;;;;;;;;4545225;28;20081;-57
2021/10/16 11:25:06;;;;;;;5.15;1.70;;;;;;;;;;4544737;28;20029;-57
2021/10/16 11:27:20;;;;;;;6.45;2.70;;;;;;;;;;4543923;28;20029;-57
2021/10/16 11:29:36;;;;;;;5.38;2.17;;;;;;;;;;4544895;28;20033;-58
2021/10/16 11:31:46;;;;;;;4.38;2.05;;;;;;;;;;4544438;28;20049;-57
2021/10/16 11:34:07;;;;;;;3.43;1.60;;;;;;;;;;4542567;28;20033;-57
2021/10/16 11:36:17;;;;;;;2.10;1.05;;;;;;;;;;4544869;28;20145;-57
2021/10/16 11:38:30;;;;;;;2.17;0.90;;;;;;;;;;4544992;28;20116;-57
2021/10/16 11:40:41;;;;;;;3.75;1.17;;;;;;;;;;4546672;28;20045;-57
2021/10/16 11:42:59;;;;;;;3.17;0.95;;;;;;;;;;4546497;28;20620;-58
2021/10/16 11:45:11;;;;;;;2.60;0.90;;;;;;;;;;4543817;28;20040;-57
2021/10/16 11:47:21;;;;;;;3.10;1.00;;;;;;;;;;4542860;28;20602;-57
2021/10/16 11:49:32;;;;;;;2.77;1.00;;;;;;;;;;4546842;28;20032;-57
2021/10/16 11:51:42;;;;;;;1.83;0.87;;;;;;;;;;4544078;28;20025;-57
2021/10/16 11:53:53;;;;;;;1.73;0.80;;;;;;;;;;4544416;28;25916;-57
2021/10/16 11:56:09;;;;;;;2.57;0.70;;;;;;;;;;4544497;28;20044;-57
2021/10/16 11:58:24;;;;;;;1.92;0.70;;;;;;;;;;4545135;28;20039;-57
2021/10/16 12:00:35;;;;;;;1.45;0.60;;;;;;;;;;4545608;28;20060;-57
2021/10/16 12:02:46;;;;;;;3.67;0.90;;;;;;;;;;4545275;28;20032;-57
2021/10/16 12:05:13;;;;;;;2.67;0.90;;;;;;;;;;4543653;28;20040;-57
2021/10/16 12:07:26;;;;;;;2.85;0.90;;;;;;;;;;4545394;28;20041;-58
2021/10/16 12:09:37;;;;;;;3.05;1.08;;;;;;;;;;4546779;28;20126;-57
2021/10/16 12:11:58;;;;;;;2.70;1.00;;;;;;;;;;4543419;28;20091;-57
2021/10/16 12:14:12;;;;;;;2.63;0.90;;;;;;;;;;4548022;28;20083;-57
2021/10/16 12:16:24;;;;;;;2.35;0.90;;;;;;;;;;4545451;28;20032;-57
2021/10/16 12:18:35;;;;;;;2.30;0.88;;;;;;;;;;4549464;28;20528;-57
2021/10/16 12:20:48;;;;;;;2.40;0.80;;;;;;;;;;4549003;28;20032;-57
2021/10/16 12:23:00;;;;;;;1.95;0.80;;;;;;;;;;4548260;28;20117;-57
2021/10/16 12:25:10;;;;;;;2.13;0.90;;;;;;;;;;4556694;28;20602;-57
2021/10/16 12:27:28;;;;;;;2.53;0.97;;;;;;;;;;4556545;28;20045;-57
2021/10/16 12:29:44;;;;;;;2.50;0.90;;;;;;;;;;4556340;28;20040;-57
2021/10/16 12:31:54;;;;;;;3.05;1.00;;;;;;;;;;4547655;28;20098;-57
2021/10/16 12:34:07;;;;;;;2.10;0.80;;;;;;;;;;4548126;28;20079;-57
2021/10/16 12:36:23;;;;;;;3.47;0.95;;;;;;;;;;4548124;28;20615;-57
2021/10/16 12:38:47;;;;;;;1.90;0.80;;;;;;;;;;4548553;28;20043;-57
2021/10/16 12:40:57;;;;;;;1.90;0.63;;;;;;;;;;4533828;28;20525;-57
2021/10/16 12:43:22;;;;;;;1.30;0.70;;;;;;;;;;4547780;28;20029;-57
2021/10/16 12:45:40;;;;;;;2.45;0.90;;;;;;;;;;4547813;28;20148;-57
2021/10/16 12:47:51;;;;;;;1.75;0.70;;;;;;;;;;4547929;28;20139;-58
2021/10/16 12:50:06;;;;;;;3.33;0.83;;;;;;;;;;4547425;28;22737;-57
2021/10/16 12:52:44;;;;;;;2.63;0.80;;;;;;;;;;4529285;28;20033;-58
2021/10/16 12:55:00;;;;;;;3.00;0.90;;;;;;;;;;4543581;28;20143;-58
2021/10/16 12:57:11;;;;;;;2.38;0.98;;;;;;;;;;4541559;28;20029;-58
2021/10/16 12:59:21;;;;;;;2.17;0.90;;;;;;;;;;4545845;28;20044;-58
2021/10/16 13:01:32;;;;;;;2.20;0.70;;;;;;;;;;4544449;28;20404;-57
2021/10/16 13:03:42;;;;;;;1.13;0.50;;;;;;;;;;4549015;28;20045;-57
2021/10/16 13:05:56;;;;;;;2.30;0.87;;;;;;;;;;4546935;28;20069;-57
2021/10/16 13:08:08;;;;;;;3.03;1.10;;;;;;;;;;4546842;28;21083;-57
2021/10/16 13:10:18;;;;;;;1.58;0.82;;;;;;;;;;4538607;28;20037;-56
2021/10/16 13:12:28;;;;;;;3.07;0.80;;;;;;;;;;4545722;28;20056;-57
2021/10/16 13:14:40;;;;;;;1.60;1.10;;;;;;;;;;4546240;28;22787;-57
2021/10/16 13:16:50;;;;;;;;;;;;;;;;;;4547074;28;20037;-57
2021/10/16 13:19:01;;;;;;;2.03;0.77;;;;;;;;;;4547601;28;19921;-57
2021/10/16 13:21:11;;;;;;;2.73;0.80;;;;;;;;;;4546494;28;20106;-57